VHHH/HKG METAR and TAF weather

Enter ICAO airport designator
Station Type Date Time Source
VHHH METAR 2022/05/26 04:30 UTC NOAA

VHHH 260430Z 29006KT 240V350 9999 FEW018 SCT030 30/24 Q1004 NOSIG


Station Type Date Time Source
VHHH Decoded METAR 2022/05/26 04:30 UTC NOAA

Hong Kong Inter-National Airport, Hong Kong (VHHH) 22-20N 114-11E 24M
May 26, 2022 - 12:30 AM EDT / 2022.05.26 0430 UTC
Wind: from the WNW (290 degrees) at 7 MPH (6 KT) (direction variable):0
Visibility: greater than 7 mile(s):0
Sky conditions: partly cloudy
Temperature: 86 F (30 C)
Heat index: 95.0 F (35.0 C):1
Dew Point: 75 F (24 C)
Relative Humidity: 70%
Pressure (altimeter): 29.65 in. Hg (1004 hPa)
ob: VHHH 260430Z 29006KT 240V350 9999 FEW018 SCT030 30/24 Q1004 NOSIG
cycle: 4

Station Type Date Time Source
VHHH TAF 2022/05/25 18:22 UTC NOAA

TAF VHHH 251700Z 2518/2624 10010KT 9999 FEW010 SCT025 TX30/2606Z TN25/2522Z TN26/2622Z
TEMPO 2521/2603 4000 SHRA FEW010CB SCT020
TEMPO 2604/2609 24010KT
TEMPO 2609/2616 VRB05KT
BECMG 2616/2618 20010KT

Example: see airport list